Time;durP1;ratioP1;P1;durP2;ratioP2;P2;SDS_P1;SDS_P2;PMS_P1;PMS_P2;Temp;Humidity;BMP_temperature;BMP_pressure;BME280_temperature;BME280_humidity;BME280_pressure;Samples;Min_cycle;Max_cycle;Signal;HPM_P1;HPM_P2
2021/01/13 00:01:54;;;;;;;18.07;7.87;;;;;;;;;;5090579;28;20526;-50
2021/01/13 00:04:20;;;;;;;20.27;7.77;;;;;;;;;;5092180;28;20399;-50
2021/01/13 00:06:49;;;;;;;17.35;7.80;;;;;;;;;;5091832;28;20487;-51
2021/01/13 00:09:15;;;;;;;24.27;8.10;;;;;;;;;;5092495;28;20173;-48
2021/01/13 00:11:41;;;;;;;14.33;8.37;;;;;;;;;;5091377;28;20217;-49
2021/01/13 00:14:07;;;;;;;19.80;8.07;;;;;;;;;;5090195;28;20427;-49
2021/01/13 00:16:33;;;;;;;20.53;8.40;;;;;;;;;;5091979;28;20927;-48
2021/01/13 00:18:59;;;;;;;12.70;7.57;;;;;;;;;;5091984;28;20404;-49
2021/01/13 00:21:24;;;;;;;16.77;7.50;;;;;;;;;;5092208;28;20535;-48
2021/01/13 00:23:50;;;;;;;16.10;8.70;;;;;;;;;;5092055;28;20874;-49
2021/01/13 00:26:23;;;;;;;16.93;8.20;;;;;;;;;;5091852;28;20392;-49
2021/01/13 00:28:49;;;;;;;16.25;7.68;;;;;;;;;;5091728;28;20392;-49
2021/01/13 00:31:16;;;;;;;13.52;7.43;;;;;;;;;;5091615;28;20224;-48
2021/01/13 00:33:44;;;;;;;27.63;9.15;;;;;;;;;;5089913;28;20550;-48
2021/01/13 00:36:15;;;;;;;12.55;7.95;;;;;;;;;;5091412;28;20657;-50
2021/01/13 00:38:41;;;;;;;16.85;8.32;;;;;;;;;;5091594;28;20210;-48
2021/01/13 00:41:07;;;;;;;13.73;8.02;;;;;;;;;;5091353;28;20192;-48
2021/01/13 00:43:33;;;;;;;13.20;8.27;;;;;;;;;;5091449;28;20256;-49
2021/01/13 00:45:59;;;;;;;14.00;8.70;;;;;;;;;;5090957;28;20408;-48
2021/01/13 00:48:25;;;;;;;14.70;7.90;;;;;;;;;;5091439;28;20464;-50
2021/01/13 00:50:51;;;;;;;10.20;8.47;;;;;;;;;;5091050;28;20453;-51
2021/01/13 00:53:17;;;;;;;9.60;7.53;;;;;;;;;;5091314;28;20755;-52
2021/01/13 00:55:43;;;;;;;13.83;8.20;;;;;;;;;;5090860;28;20411;-49
2021/01/13 00:58:09;;;;;;;24.30;9.80;;;;;;;;;;5091188;28;20395;-49
2021/01/13 01:00:35;;;;;;;15.63;8.70;;;;;;;;;;5091025;28;20444;-51
2021/01/13 01:03:01;;;;;;;19.80;9.00;;;;;;;;;;5089891;28;20993;-52
2021/01/13 01:05:27;;;;;;;19.67;8.73;;;;;;;;;;5090946;28;20906;-52
2021/01/13 01:07:53;;;;;;;17.15;9.27;;;;;;;;;;5091133;28;20392;-52
2021/01/13 01:10:20;;;;;;;12.98;8.13;;;;;;;;;;5091040;28;20702;-50
2021/01/13 01:12:46;;;;;;;17.95;9.15;;;;;;;;;;5090722;28;20337;-49
2021/01/13 01:15:12;;;;;;;15.50;8.32;;;;;;;;;;5090871;28;20656;-50
2021/01/13 01:17:38;;;;;;;23.73;9.90;;;;;;;;;;5090799;28;20169;-49
2021/01/13 01:20:05;;;;;;;13.10;8.87;;;;;;;;;;5090943;28;20191;-50
2021/01/13 01:22:30;;;;;;;21.33;9.57;;;;;;;;;;5090730;28;20989;-49
2021/01/13 01:24:56;;;;;;;14.00;9.27;;;;;;;;;;5090907;28;20253;-49
2021/01/13 01:27:22;;;;;;;11.07;9.53;;;;;;;;;;5090583;28;20903;-51
2021/01/13 01:29:48;;;;;;;20.00;9.68;;;;;;;;;;5090596;28;20450;-51
2021/01/13 01:32:14;;;;;;;15.80;9.40;;;;;;;;;;5090761;28;20192;-48
2021/01/13 01:34:40;;;;;;;17.73;10.63;;;;;;;;;;5089777;28;20430;-48
2021/01/13 01:37:06;;;;;;;12.93;9.73;;;;;;;;;;5090634;28;20403;-49
2021/01/13 01:39:32;;;;;;;19.90;10.47;;;;;;;;;;5090655;28;20429;-49
2021/01/13 01:41:58;;;;;;;18.90;10.30;;;;;;;;;;5089883;28;20446;-49
2021/01/13 01:44:24;;;;;;;25.60;10.10;;;;;;;;;;5090563;28;20395;-49
2021/01/13 01:46:51;;;;;;;21.97;9.63;;;;;;;;;;5090446;28;20448;-48
2021/01/13 01:49:17;;;;;;;19.95;9.85;;;;;;;;;;5089702;28;20477;-48
2021/01/13 01:51:54;;;;;;;23.17;9.95;;;;;;;;;;5090552;28;20280;-48
2021/01/13 01:54:24;;;;;;;13.80;9.80;;;;;;;;;;5090525;28;20165;-51
2021/01/13 01:56:52;;;;;;;14.15;9.60;;;;;;;;;;5090269;28;20501;-50
2021/01/13 01:59:20;;;;;;;18.05;9.80;;;;;;;;;;5090589;28;20173;-52
2021/01/13 02:01:49;;;;;;;13.00;9.35;;;;;;;;;;5089853;28;20268;-48
2021/01/13 02:04:15;;;;;;;17.50;9.90;;;;;;;;;;5090063;28;20169;-49
2021/01/13 02:06:50;;;;;;;17.65;9.93;;;;;;;;;;5089745;28;20169;-48
2021/01/13 02:09:16;;;;;;;13.38;9.82;;;;;;;;;;5089653;28;20188;-48
2021/01/13 02:11:44;;;;;;;19.63;10.90;;;;;;;;;;5090216;28;20202;-49
2021/01/13 02:14:12;;;;;;;19.13;10.90;;;;;;;;;;5092712;28;20406;-54
2021/01/13 02:16:38;;;;;;;18.20;10.70;;;;;;;;;;5094199;28;20637;-49
2021/01/13 02:19:14;;;;;;;15.55;9.55;;;;;;;;;;5094446;28;20165;-48
2021/01/13 02:21:43;;;;;;;24.02;10.93;;;;;;;;;;5094185;28;20695;-48
2021/01/13 02:24:11;;;;;;;16.65;9.80;;;;;;;;;;5094232;28;20195;-51
2021/01/13 02:26:56;;;;;;;15.48;10.60;;;;;;;;;;5093893;28;20169;-48
2021/01/13 02:29:34;;;;;;;21.10;10.18;;;;;;;;;;5094101;28;20219;-48
2021/01/13 02:32:03;;;;;;;19.33;9.00;;;;;;;;;;5094053;28;20185;-49
2021/01/13 02:34:35;;;;;;;14.35;9.80;;;;;;;;;;5092889;28;20874;-48
2021/01/13 02:37:19;;;;;;;13.13;9.02;;;;;;;;;;5093677;28;20161;-50
2021/01/13 02:39:46;;;;;;;18.38;8.50;;;;;;;;;;5093836;28;20165;-51
2021/01/13 02:42:22;;;;;;;23.27;10.30;;;;;;;;;;5093772;28;20558;-48
2021/01/13 02:45:02;;;;;;;16.98;9.45;;;;;;;;;;5093620;28;20541;-49
2021/01/13 02:47:35;;;;;;;13.73;8.52;;;;;;;;;;5093542;28;20196;-48
2021/01/13 02:50:01;;;;;;;17.85;9.48;;;;;;;;;;5093542;28;20197;-49
2021/01/13 02:52:31;;;;;;;24.20;10.02;;;;;;;;;;5093554;28;20200;-48
2021/01/13 02:55:03;;;;;;;24.92;10.93;;;;;;;;;;5093343;28;20170;-52
2021/01/13 02:57:29;;;;;;;24.27;10.25;;;;;;;;;;5093561;28;20189;-48
2021/01/13 02:59:56;;;;;;;23.35;10.10;;;;;;;;;;5093451;28;20196;-48
2021/01/13 03:02:36;;;;;;;18.52;10.20;;;;;;;;;;5093429;28;20224;-51
2021/01/13 03:05:02;;;;;;;19.92;10.57;;;;;;;;;;5092336;28;20188;-51
2021/01/13 03:07:34;;;;;;;14.15;9.90;;;;;;;;;;5091190;28;20192;-51
2021/01/13 03:10:10;;;;;;;13.45;9.70;;;;;;;;;;5093083;28;20197;-48
2021/01/13 03:12:39;;;;;;;20.42;10.00;;;;;;;;;;5093153;28;20204;-49
2021/01/13 03:15:05;;;;;;;19.80;10.60;;;;;;;;;;5093226;28;20206;-49
2021/01/13 03:17:34;;;;;;;17.77;9.95;;;;;;;;;;5092733;28;20173;-49
2021/01/13 03:20:10;;;;;;;17.38;9.38;;;;;;;;;;5093024;28;20176;-52
2021/01/13 03:22:57;;;;;;;16.10;10.15;;;;;;;;;;5093069;28;20189;-49
2021/01/13 03:25:24;;;;;;;25.35;8.82;;;;;;;;;;5089094;28;20169;-48
2021/01/13 03:27:50;;;;;;;13.20;8.25;;;;;;;;;;5092841;28;20158;-50
2021/01/13 03:30:18;;;;;;;13.38;8.55;;;;;;;;;;5092814;28;20190;-49
2021/01/13 03:32:47;;;;;;;18.52;8.73;;;;;;;;;;5092681;28;20181;-50
2021/01/13 03:35:14;;;;;;;18.88;8.63;;;;;;;;;;5091603;28;20188;-49
2021/01/13 03:37:40;;;;;;;11.93;8.55;;;;;;;;;;5091859;28;20191;-49
2021/01/13 03:40:06;;;;;;;12.53;8.63;;;;;;;;;;5092709;28;20166;-49
2021/01/13 03:42:36;;;;;;;19.40;9.15;;;;;;;;;;5092451;28;20441;-49
2021/01/13 03:45:06;;;;;;;15.57;8.88;;;;;;;;;;5092667;28;20644;-49
2021/01/13 03:47:41;;;;;;;19.70;10.02;;;;;;;;;;5092342;28;20174;-52
2021/01/13 03:50:12;;;;;;;17.77;9.18;;;;;;;;;;5091815;28;20792;-49
2021/01/13 03:52:39;;;;;;;19.65;9.18;;;;;;;;;;5091469;28;20221;-48
2021/01/13 03:55:05;;;;;;;14.43;8.23;;;;;;;;;;5092313;28;20514;-51
2021/01/13 03:57:52;;;;;;;18.52;7.80;;;;;;;;;;5092110;28;20252;-50
2021/01/13 04:00:21;;;;;;;21.55;9.13;;;;;;;;;;5092271;28;20177;-48
2021/01/13 04:03:06;;;;;;;19.73;8.50;;;;;;;;;;5091537;28;20201;-51
2021/01/13 04:05:33;;;;;;;21.58;9.75;;;;;;;;;;5091969;28;20173;-49
2021/01/13 04:08:00;;;;;;;13.85;8.40;;;;;;;;;;5092138;28;20175;-50
2021/01/13 04:10:26;;;;;;;20.92;9.80;;;;;;;;;;5092111;28;20197;-48
2021/01/13 04:13:02;;;;;;;18.45;9.98;;;;;;;;;;5092802;28;20197;-49
2021/01/13 04:15:35;;;;;;;23.08;9.75;;;;;;;;;;5092032;28;20219;-49
2021/01/13 04:18:03;;;;;;;26.27;10.43;;;;;;;;;;5091276;28;20177;-48
2021/01/13 04:20:29;;;;;;;15.13;8.93;;;;;;;;;;5091862;28;20698;-52
2021/01/13 04:22:56;;;;;;;16.90;9.52;;;;;;;;;;5092078;28;20323;-53
2021/01/13 04:25:22;;;;;;;16.17;9.90;;;;;;;;;;5091585;28;20211;-52
2021/01/13 04:27:48;;;;;;;20.88;10.38;;;;;;;;;;5091803;28;20173;-52
2021/01/13 04:30:15;;;;;;;19.48;9.55;;;;;;;;;;5091732;28;20185;-48
2021/01/13 04:32:41;;;;;;;22.48;9.63;;;;;;;;;;5091148;28;20201;-49
2021/01/13 04:35:07;;;;;;;19.00;9.70;;;;;;;;;;5091674;28;20354;-48
2021/01/13 04:37:35;;;;;;;17.95;9.73;;;;;;;;;;5090057;28;20415;-48
2021/01/13 04:40:24;;;;;;;18.10;10.00;;;;;;;;;;5091757;28;20181;-48
2021/01/13 04:42:59;;;;;;;13.15;9.65;;;;;;;;;;5091406;28;20189;-51
2021/01/13 04:45:35;;;;;;;16.52;10.30;;;;;;;;;;5090202;28;20234;-51
2021/01/13 04:48:06;;;;;;;18.35;10.65;;;;;;;;;;5091326;28;20572;-49
2021/01/13 04:50:34;;;;;;;22.25;11.38;;;;;;;;;;5091434;28;20227;-48
2021/01/13 04:53:00;;;;;;;22.90;12.25;;;;;;;;;;5091187;28;20205;-48
2021/01/13 04:55:29;;;;;;;21.73;11.43;;;;;;;;;;5091040;28;20162;-49
2021/01/13 04:58:13;;;;;;;20.67;12.77;;;;;;;;;;5091118;28;20195;-48
2021/01/13 05:00:57;;;;;;;21.02;13.48;;;;;;;;;;5091260;28;20180;-50
2021/01/13 05:03:42;;;;;;;22.30;13.32;;;;;;;;;;5089338;28;20179;-52
2021/01/13 05:06:08;;;;;;;16.80;12.90;;;;;;;;;;5090840;28;20174;-48
2021/01/13 05:08:34;;;;;;;26.77;14.50;;;;;;;;;;5091027;28;20181;-49
2021/01/13 05:11:13;;;;;;;29.88;14.50;;;;;;;;;;5090718;28;20550;-49
2021/01/13 05:13:51;;;;;;;23.13;15.02;;;;;;;;;;5091235;28;20200;-51
2021/01/13 05:16:17;;;;;;;23.50;15.02;;;;;;;;;;5090728;28;20165;-51
2021/01/13 05:18:54;;;;;;;24.20;14.38;;;;;;;;;;5090912;28;20166;-51
2021/01/13 05:21:21;;;;;;;31.17;17.08;;;;;;;;;;5090712;28;20234;-51
2021/01/13 05:23:52;;;;;;;18.58;13.68;;;;;;;;;;5090979;28;20175;-49
2021/01/13 05:26:22;;;;;;;20.13;14.10;;;;;;;;;;5090589;28;20204;-51
2021/01/13 05:29:08;;;;;;;30.20;16.00;;;;;;;;;;5090935;28;20192;-51
2021/01/13 05:31:37;;;;;;;24.20;15.63;;;;;;;;;;5090054;28;20200;-50
2021/01/13 05:34:04;;;;;;;45.00;15.68;;;;;;;;;;5090350;28;20265;-48
2021/01/13 05:36:35;;;;;;;29.77;17.35;;;;;;;;;;5090389;28;20161;-48
2021/01/13 05:39:10;;;;;;;21.13;13.85;;;;;;;;;;5090802;28;20219;-50
2021/01/13 05:41:36;;;;;;;21.42;14.13;;;;;;;;;;5089833;28;20274;-49
2021/01/13 05:44:06;;;;;;;29.95;17.17;;;;;;;;;;5090827;28;20219;-48
2021/01/13 05:46:50;;;;;;;25.08;14.85;;;;;;;;;;5090552;28;20169;-52
2021/01/13 05:49:16;;;;;;;22.40;13.55;;;;;;;;;;5093114;28;20168;-50
2021/01/13 05:51:44;;;;;;;26.38;14.40;;;;;;;;;;5094706;28;20254;-49
2021/01/13 05:54:15;;;;;;;21.25;14.77;;;;;;;;;;5094754;28;20624;-52
2021/01/13 05:56:41;;;;;;;23.77;15.07;;;;;;;;;;5094808;28;20174;-48
2021/01/13 06:02:13;;;;;;;28.40;14.10;;;;;;;;;;5093161;28;20699;-52
2021/01/13 06:04:41;;;;;;;22.33;13.43;;;;;;;;;;5094413;28;20215;-48
2021/01/13 06:07:10;;;;;;;28.83;14.55;;;;;;;;;;5094225;28;20206;-51
2021/01/13 06:09:42;;;;;;;27.27;15.82;;;;;;;;;;5093583;28;20261;-49
2021/01/13 06:12:14;;;;;;;26.65;15.63;;;;;;;;;;5094239;28;20258;-50
2021/01/13 06:14:41;;;;;;;29.60;14.20;;;;;;;;;;5094238;28;20195;-49
2021/01/13 06:17:07;;;;;;;21.40;15.50;;;;;;;;;;5094087;28;20170;-49
2021/01/13 06:19:33;;;;;;;27.42;14.80;;;;;;;;;;5094098;28;20176;-49
2021/01/13 06:22:09;;;;;;;23.30;13.70;;;;;;;;;;5094170;28;20239;-49
2021/01/13 06:24:36;;;;;;;22.77;14.88;;;;;;;;;;5094115;28;20165;-51
2021/01/13 06:27:18;;;;;;;27.60;16.38;;;;;;;;;;5093826;28;20165;-49
2021/01/13 06:29:51;;;;;;;25.73;15.70;;;;;;;;;;5093880;28;20217;-49
2021/01/13 06:32:20;;;;;;;26.73;15.52;;;;;;;;;;5093060;28;20275;-51
2021/01/13 06:34:53;;;;;;;25.77;15.70;;;;;;;;;;5093938;28;20540;-50
2021/01/13 06:37:29;;;;;;;28.63;16.98;;;;;;;;;;5093566;28;20687;-48
2021/01/13 06:39:57;;;;;;;36.42;15.50;;;;;;;;;;5093932;28;20683;-48
2021/01/13 06:42:30;;;;;;;27.80;14.93;;;;;;;;;;5093642;28;20195;-49
2021/01/13 06:44:56;;;;;;;25.45;15.88;;;;;;;;;;5093262;28;20256;-48
2021/01/13 06:47:22;;;;;;;27.83;16.07;;;;;;;;;;5074985;28;20256;-49
2021/01/13 06:49:49;;;;;;;32.97;17.97;;;;;;;;;;5092928;28;20437;-48
2021/01/13 06:52:27;;;;;;;28.80;18.38;;;;;;;;;;5092869;28;20498;-49
2021/01/13 06:54:54;;;;;;;35.65;19.83;;;;;;;;;;5093191;28;20171;-49
2021/01/13 06:57:25;;;;;;;29.90;18.63;;;;;;;;;;5092673;28;20174;-49
2021/01/13 06:59:51;;;;;;;36.95;21.00;;;;;;;;;;5092580;28;20166;-49
2021/01/13 07:02:17;;;;;;;40.67;20.90;;;;;;;;;;5091932;28;20293;-51
2021/01/13 07:04:44;;;;;;;47.63;21.97;;;;;;;;;;5092613;28;20407;-52
2021/01/13 07:07:12;;;;;;;38.97;22.48;;;;;;;;;;5092640;28;20404;-49
2021/01/13 07:09:45;;;;;;;46.22;22.25;;;;;;;;;;5092561;28;20165;-49
2021/01/13 07:12:17;;;;;;;40.90;21.80;;;;;;;;;;5092564;28;20199;-49
2021/01/13 07:14:44;;;;;;;35.00;22.60;;;;;;;;;;5092645;28;20248;-50
2021/01/13 07:17:13;;;;;;;33.05;21.75;;;;;;;;;;5092451;28;20185;-49
2021/01/13 07:19:44;;;;;;;39.15;22.40;;;;;;;;;;5092293;28;20165;-49
2021/01/13 07:22:11;;;;;;;40.85;22.30;;;;;;;;;;5092658;28;20684;-52
2021/01/13 07:24:37;;;;;;;41.95;23.73;;;;;;;;;;5092335;28;20170;-48
2021/01/13 07:27:03;;;;;;;41.93;24.10;;;;;;;;;;5092288;28;20169;-49
2021/01/13 07:29:30;;;;;;;40.13;23.15;;;;;;;;;;5092161;28;20404;-49
2021/01/13 07:31:57;;;;;;;34.97;20.27;;;;;;;;;;5091336;28;20268;-49
2021/01/13 07:34:30;;;;;;;43.40;22.48;;;;;;;;;;5092484;28;20157;-51
2021/01/13 07:37:05;;;;;;;35.67;20.65;;;;;;;;;;5090622;28;20592;-50
2021/01/13 07:39:50;;;;;;;46.58;22.35;;;;;;;;;;5092416;28;20252;-49
2021/01/13 07:42:32;;;;;;;41.53;23.40;;;;;;;;;;5092171;28;20197;-52
2021/01/13 07:45:12;;;;;;;44.53;21.40;;;;;;;;;;5092226;28;20524;-49
2021/01/13 07:47:58;;;;;;;46.60;24.52;;;;;;;;;;5091748;28;20250;-49
2021/01/13 07:50:24;;;;;;;37.58;23.90;;;;;;;;;;5091824;28;20220;-49
2021/01/13 07:52:51;;;;;;;35.17;21.70;;;;;;;;;;5092141;28;20659;-49
2021/01/13 07:55:17;;;;;;;40.28;20.85;;;;;;;;;;5092275;28;20214;-52
2021/01/13 07:57:47;;;;;;;38.63;23.83;;;;;;;;;;5092181;28;20625;-52
2021/01/13 08:00:14;;;;;;;37.97;22.48;;;;;;;;;;5092404;28;20557;-51
2021/01/13 08:02:59;;;;;;;44.65;22.40;;;;;;;;;;5090275;28;20723;-49
2021/01/13 08:05:28;;;;;;;48.38;22.85;;;;;;;;;;5091996;28;20572;-50
2021/01/13 08:08:06;;;;;;;37.45;21.27;;;;;;;;;;5092067;28;20295;-49
2021/01/13 08:10:35;;;;;;;36.28;20.63;;;;;;;;;;5092011;28;20204;-49
2021/01/13 08:13:10;;;;;;;32.45;20.00;;;;;;;;;;5091481;28;20783;-48
2021/01/13 08:15:39;;;;;;;35.22;20.80;;;;;;;;;;5091794;28;20203;-49
2021/01/13 08:18:50;;;;;;;35.17;18.90;;;;;;;;;;5091821;28;20593;-49
2021/01/13 08:21:24;;;;;;;30.83;18.05;;;;;;;;;;5075444;28;20187;-49
2021/01/13 08:24:01;;;;;;;31.88;17.48;;;;;;;;;;5091739;28;20690;-52
2021/01/13 08:26:27;;;;;;;32.83;18.42;;;;;;;;;;5091736;28;20252;-52
2021/01/13 08:28:56;;;;;;;33.97;17.27;;;;;;;;;;5091780;28;20215;-51
2021/01/13 08:31:23;;;;;;;30.95;17.55;;;;;;;;;;5091560;28;20205;-51
2021/01/13 08:34:02;;;;;;;26.77;16.80;;;;;;;;;;5090790;28;20196;-52
2021/01/13 08:36:28;;;;;;;26.10;16.52;;;;;;;;;;5073331;28;20686;-49
2021/01/13 08:39:12;;;;;;;31.60;16.58;;;;;;;;;;5091608;28;20579;-49
2021/01/13 08:41:39;;;;;;;24.33;15.18;;;;;;;;;;5091434;28;20695;-49
2021/01/13 08:44:08;;;;;;;23.08;15.80;;;;;;;;;;5091502;28;20177;-49
2021/01/13 08:46:44;;;;;;;21.63;15.10;;;;;;;;;;5090946;28;20177;-49
2021/01/13 08:49:11;;;;;;;27.08;15.30;;;;;;;;;;5091498;28;20169;-49
2021/01/13 08:51:37;;;;;;;26.63;14.88;;;;;;;;;;5091221;28;20209;-51
2021/01/13 08:54:19;;;;;;;22.83;14.88;;;;;;;;;;5091414;28;20583;-52
2021/01/13 08:56:55;;;;;;;23.30;14.23;;;;;;;;;;5090919;28;20247;-48
2021/01/13 08:59:28;;;;;;;20.48;14.07;;;;;;;;;;5091360;28;20189;-49
2021/01/13 09:01:54;;;;;;;21.20;13.30;;;;;;;;;;5090085;28;20225;-52
2021/01/13 09:04:23;;;;;;;17.85;11.55;;;;;;;;;;5091255;28;20170;-51
2021/01/13 09:07:01;;;;;;;19.05;12.25;;;;;;;;;;5090800;28;20218;-48
2021/01/13 09:09:30;;;;;;;24.85;12.82;;;;;;;;;;5091154;28;20675;-49
2021/01/13 09:11:56;;;;;;;18.00;12.57;;;;;;;;;;5090815;28;20198;-51
2021/01/13 09:14:27;;;;;;;28.83;13.07;;;;;;;;;;5091205;28;20164;-53
2021/01/13 09:16:54;;;;;;;19.95;12.95;;;;;;;;;;5091039;28;20214;-49
2021/01/13 09:19:36;;;;;;;23.77;12.95;;;;;;;;;;5091071;28;20171;-49
2021/01/13 09:22:04;;;;;;;23.10;13.65;;;;;;;;;;5091092;28;20197;-48
2021/01/13 09:24:35;;;;;;;23.95;14.95;;;;;;;;;;5090996;28;20198;-49
2021/01/13 09:27:02;;;;;;;23.58;12.32;;;;;;;;;;5091961;28;20189;-51
2021/01/13 09:29:29;;;;;;;22.42;12.73;;;;;;;;;;5090953;28;20188;-51
2021/01/13 09:32:12;;;;;;;26.00;13.35;;;;;;;;;;5091506;28;20215;-50
2021/01/13 09:34:40;;;;;;;16.35;12.60;;;;;;;;;;5057302;28;20203;-52
2021/01/13 09:37:07;;;;;;;20.60;13.30;;;;;;;;;;5076034;28;20171;-52
2021/01/13 09:39:36;;;;;;;17.35;11.77;;;;;;;;;;5075791;28;20244;-49
2021/01/13 09:42:04;;;;;;;17.17;12.65;;;;;;;;;;5074030;28;20205;-52
2021/01/13 09:44:38;;;;;;;19.92;13.07;;;;;;;;;;5074637;28;20200;-51
2021/01/13 09:47:23;;;;;;;19.80;16.02;;;;;;;;;;5075873;28;20149;-48
2021/01/13 09:49:50;;;;;;;19.52;13.10;;;;;;;;;;5090456;28;20707;-50
2021/01/13 09:52:16;;;;;;;24.00;14.20;;;;;;;;;;5090302;28;20201;-50
2021/01/13 09:54:49;;;;;;;19.00;13.85;;;;;;;;;;5090645;28;20209;-50
2021/01/13 09:57:15;;;;;;;24.20;14.45;;;;;;;;;;5090094;28;20174;-50
2021/01/13 09:59:59;;;;;;;26.65;15.32;;;;;;;;;;5090435;28;20171;-49
2021/01/13 10:02:26;;;;;;;24.08;16.33;;;;;;;;;;5090412;28;20189;-51
2021/01/13 10:04:52;;;;;;;26.48;16.75;;;;;;;;;;5090634;28;20173;-50
2021/01/13 10:07:21;;;;;;;25.50;15.60;;;;;;;;;;5090153;28;20602;-50
2021/01/13 10:09:48;;;;;;;22.30;16.90;;;;;;;;;;5090334;28;20405;-51
2021/01/13 10:12:15;;;;;;;25.48;15.57;;;;;;;;;;5089753;28;20237;-50
2021/01/13 10:14:42;;;;;;;28.10;18.65;;;;;;;;;;5090161;28;20181;-50
2021/01/13 10:17:08;;;;;;;24.05;16.95;;;;;;;;;;5072064;28;20181;-50
2021/01/13 10:19:34;;;;;;;24.65;15.82;;;;;;;;;;5090361;28;20631;-50
2021/01/13 10:22:02;;;;;;;24.80;15.10;;;;;;;;;;5090353;28;20204;-50
2021/01/13 10:24:30;;;;;;;19.63;15.00;;;;;;;;;;5090094;28;20180;-50
2021/01/13 10:27:00;;;;;;;27.92;15.77;;;;;;;;;;5090433;28;20173;-50
2021/01/13 10:29:26;;;;;;;26.17;16.60;;;;;;;;;;5090331;28;20222;-50
2021/01/13 10:31:52;;;;;;;29.13;16.27;;;;;;;;;;5090368;28;20242;-49
2021/01/13 10:34:19;;;;;;;25.73;16.35;;;;;;;;;;5091108;28;20168;-49
2021/01/13 10:36:58;;;;;;;29.20;18.23;;;;;;;;;;5101479;28;20171;-51
2021/01/13 10:39:28;;;;;;;28.20;16.35;;;;;;;;;;5074822;28;20611;-48
2021/01/13 10:41:55;;;;;;;36.38;19.05;;;;;;;;;;5078866;28;20198;-48
2021/01/13 10:44:28;;;;;;;35.88;19.05;;;;;;;;;;5090485;28;20195;-52
2021/01/13 10:46:57;;;;;;;25.88;17.10;;;;;;;;;;5080354;28;20169;-51
2021/01/13 10:49:29;;;;;;;32.88;18.42;;;;;;;;;;5098870;28;20174;-48
2021/01/13 10:51:58;;;;;;;27.05;16.83;;;;;;;;;;5096242;28;20189;-52
2021/01/13 10:54:26;;;;;;;25.02;16.42;;;;;;;;;;5079372;28;20184;-52
2021/01/13 10:56:53;;;;;;;25.58;17.77;;;;;;;;;;5081451;28;20177;-50
2021/01/13 10:59:19;;;;;;;27.52;18.48;;;;;;;;;;5098001;28;20201;-48
2021/01/13 11:01:50;;;;;;;30.73;16.67;;;;;;;;;;5097925;28;20259;-51
2021/01/13 11:04:27;;;;;;;28.23;18.27;;;;;;;;;;5078353;28;20655;-50
2021/01/13 11:06:57;;;;;;;25.95;18.63;;;;;;;;;;5093796;28;20162;-51
2021/01/13 11:09:23;;;;;;;26.20;18.20;;;;;;;;;;5093222;28;20571;-50
2021/01/13 11:11:49;;;;;;;28.50;19.95;;;;;;;;;;5093061;28;20210;-50
2021/01/13 11:14:16;;;;;;;33.97;20.40;;;;;;;;;;5092167;28;20173;-51
2021/01/13 11:17:20;;;;;;;30.17;20.70;;;;;;;;;;5092505;28;20167;-50
2021/01/13 11:19:54;;;;;;;31.00;19.08;;;;;;;;;;5010578;28;20174;-50
2021/01/13 11:22:21;;;;;;;30.98;19.02;;;;;;;;;;5010461;28;20228;-50
2021/01/13 11:24:48;;;;;;;25.23;17.55;;;;;;;;;;5054279;28;20230;-50
2021/01/13 11:27:14;;;;;;;34.53;20.52;;;;;;;;;;5092513;28;20174;-50
2021/01/13 11:29:42;;;;;;;25.13;20.37;;;;;;;;;;5092908;28;20164;-50
2021/01/13 11:32:13;;;;;;;27.48;19.80;;;;;;;;;;5092720;28;20951;-50
2021/01/13 11:34:40;;;;;;;36.45;20.27;;;;;;;;;;5092939;28;20255;-50
2021/01/13 11:37:14;;;;;;;31.52;18.20;;;;;;;;;;5091297;28;20188;-50
2021/01/13 11:39:56;;;;;;;30.02;20.85;;;;;;;;;;5092655;28;20213;-50
2021/01/13 11:42:32;;;;;;;34.58;20.10;;;;;;;;;;5092498;28;20192;-50
2021/01/13 11:45:09;;;;;;;30.90;19.35;;;;;;;;;;5092664;28;20656;-50
2021/01/13 11:47:40;;;;;;;33.47;19.05;;;;;;;;;;5091282;28;20549;-50
2021/01/13 11:50:14;;;;;;;28.98;20.50;;;;;;;;;;5092354;28;20191;-49
2021/01/13 11:52:41;;;;;;;29.27;19.50;;;;;;;;;;5092480;28;20212;-50
2021/01/13 11:55:07;;;;;;;30.27;20.23;;;;;;;;;;5092392;28;20157;-51
2021/01/13 11:57:34;;;;;;;29.65;18.48;;;;;;;;;;5092180;28;20597;-51
2021/01/13 12:00:14;;;;;;;26.52;16.35;;;;;;;;;;5092282;28;20294;-50
2021/01/13 12:02:40;;;;;;;24.17;16.27;;;;;;;;;;5092419;28;20212;-51
2021/01/13 12:05:09;;;;;;;26.92;17.90;;;;;;;;;;5092133;28;20236;-50
2021/01/13 12:07:35;;;;;;;23.60;15.27;;;;;;;;;;5091244;28;20646;-50
2021/01/13 12:10:11;;;;;;;29.88;13.68;;;;;;;;;;5092070;28;20415;-50
2021/01/13 12:12:37;;;;;;;21.65;12.75;;;;;;;;;;5091925;28;20203;-50
2021/01/13 12:15:05;;;;;;;24.95;12.82;;;;;;;;;;5092030;28;20170;-50
2021/01/13 12:17:32;;;;;;;16.77;13.15;;;;;;;;;;5091692;28;20165;-51
2021/01/13 12:19:58;;;;;;;25.13;13.43;;;;;;;;;;5092103;28;20175;-50
2021/01/13 12:22:34;;;;;;;28.25;14.27;;;;;;;;;;5091832;28;20182;-51
2021/01/13 12:25:00;;;;;;;22.10;12.95;;;;;;;;;;5092004;28;20199;-51
2021/01/13 12:27:27;;;;;;;21.07;13.77;;;;;;;;;;5091435;28;20169;-50
2021/01/13 12:30:13;;;;;;;19.70;13.70;;;;;;;;;;5091776;28;20401;-50
2021/01/13 12:32:40;;;;;;;19.02;14.10;;;;;;;;;;5091559;28;20259;-50
2021/01/13 12:35:07;;;;;;;17.02;12.55;;;;;;;;;;5090439;28;20185;-50
2021/01/13 12:37:44;;;;;;;17.98;12.10;;;;;;;;;;5091388;28;20165;-50
2021/01/13 12:40:10;;;;;;;20.60;12.10;;;;;;;;;;5091653;28;20251;-50
2021/01/13 12:42:37;;;;;;;19.33;12.70;;;;;;;;;;5091635;28;20211;-51
2021/01/13 12:45:03;;;;;;;17.50;11.65;;;;;;;;;;5091663;28;20234;-50
2021/01/13 12:47:30;;;;;;;14.77;10.82;;;;;;;;;;5091522;28;20201;-51
2021/01/13 12:49:56;;;;;;;14.90;10.70;;;;;;;;;;5091564;28;20640;-51
2021/01/13 12:52:22;;;;;;;20.02;11.23;;;;;;;;;;5091456;28;20656;-50
2021/01/13 12:54:48;;;;;;;16.50;9.85;;;;;;;;;;5091363;28;20176;-50
2021/01/13 12:57:14;;;;;;;15.70;11.10;;;;;;;;;;5091045;28;20169;-50
2021/01/13 12:59:40;;;;;;;16.55;10.98;;;;;;;;;;5089355;28;20515;-50
2021/01/13 13:02:07;;;;;;;11.70;9.60;;;;;;;;;;5091248;28;20747;-52
2021/01/13 13:04:32;;;;;;;15.05;10.60;;;;;;;;;;5091199;28;20173;-52
2021/01/13 13:06:58;;;;;;;21.10;11.10;;;;;;;;;;5090789;28;20230;-50
2021/01/13 13:09:25;;;;;;;15.13;10.37;;;;;;;;;;5091237;28;20406;-50
2021/01/13 13:11:51;;;;;;;15.65;10.55;;;;;;;;;;5090698;28;20455;-51
2021/01/13 13:14:17;;;;;;;14.00;11.18;;;;;;;;;;5091234;28;20208;-51
2021/01/13 13:16:44;;;;;;;15.10;11.00;;;;;;;;;;5089254;28;20169;-51
2021/01/13 13:19:10;;;;;;;14.70;12.15;;;;;;;;;;5090997;28;20168;-51
2021/01/13 13:21:36;;;;;;;19.92;12.85;;;;;;;;;;5090475;28;20196;-50
2021/01/13 13:24:02;;;;;;;13.37;11.43;;;;;;;;;;5090920;28;20783;-50
2021/01/13 13:26:28;;;;;;;18.70;12.38;;;;;;;;;;5090643;28;20403;-50
2021/01/13 13:28:54;;;;;;;16.13;11.93;;;;;;;;;;5089686;28;20185;-51
2021/01/13 13:31:22;;;;;;;14.05;11.40;;;;;;;;;;5090535;28;20455;-50
2021/01/13 13:33:49;;;;;;;15.02;11.80;;;;;;;;;;5090357;28;20668;-50
2021/01/13 13:36:15;;;;;;;20.38;12.15;;;;;;;;;;5090776;28;20191;-50
2021/01/13 13:38:42;;;;;;;19.20;12.07;;;;;;;;;;5089762;28;20180;-50
2021/01/13 13:41:08;;;;;;;21.30;12.77;;;;;;;;;;5089393;28;20206;-51
2021/01/13 13:43:34;;;;;;;17.23;12.25;;;;;;;;;;5089220;28;20169;-50
2021/01/13 13:46:01;;;;;;;17.73;12.43;;;;;;;;;;5090254;28;20176;-49
2021/01/13 13:48:27;;;;;;;17.88;12.27;;;;;;;;;;5090539;28;20824;-50
2021/01/13 13:50:54;;;;;;;25.90;13.50;;;;;;;;;;5090369;28;20929;-50
2021/01/13 13:53:20;;;;;;;17.33;12.65;;;;;;;;;;5090343;28;20637;-50
2021/01/13 13:55:46;;;;;;;13.30;11.60;;;;;;;;;;5089254;28;20228;-50
2021/01/13 13:58:12;;;;;;;16.70;11.43;;;;;;;;;;5090741;28;20606;-51
2021/01/13 14:00:38;;;;;;;14.63;11.70;;;;;;;;;;5088570;28;20750;-51
2021/01/13 14:03:04;;;;;;;16.95;11.63;;;;;;;;;;5090566;28;20506;-51
2021/01/13 14:05:30;;;;;;;15.70;10.57;;;;;;;;;;5090183;28;20197;-51
2021/01/13 14:07:56;;;;;;;19.60;11.00;;;;;;;;;;5090632;28;20209;-50
2021/01/13 14:10:22;;;;;;;19.57;11.37;;;;;;;;;;5092627;28;20447;-50
2021/01/13 14:12:49;;;;;;;14.15;9.85;;;;;;;;;;5094378;28;20443;-52
2021/01/13 14:15:15;;;;;;;16.85;11.45;;;;;;;;;;5094142;28;20286;-50
2021/01/13 14:17:41;;;;;;;14.43;10.75;;;;;;;;;;5094250;28;20169;-51
2021/01/13 14:20:08;;;;;;;12.00;10.60;;;;;;;;;;5094217;28;20515;-51
2021/01/13 14:22:34;;;;;;;14.75;10.93;;;;;;;;;;5094250;28;20421;-50
2021/01/13 14:25:01;;;;;;;12.25;9.80;;;;;;;;;;5094207;28;20172;-51
2021/01/13 14:27:27;;;;;;;18.05;12.23;;;;;;;;;;5093857;28;20169;-52
2021/01/13 14:29:53;;;;;;;19.27;11.20;;;;;;;;;;5093117;28;20650;-51
2021/01/13 14:32:19;;;;;;;17.15;10.40;;;;;;;;;;5093950;28;20208;-50
2021/01/13 14:34:45;;;;;;;17.20;11.18;;;;;;;;;;5094104;28;20167;-50
2021/01/13 14:37:11;;;;;;;14.23;11.20;;;;;;;;;;5093695;28;20157;-50
2021/01/13 14:39:38;;;;;;;11.80;9.93;;;;;;;;;;5094054;28;20496;-49